sensor_id;sensor_type;location;lat;lon;timestamp;P1;durP1;ratioP1;P2;durP2;ratioP2
76393;SDS011;65216;51.090;-115.352;2023-05-07T00:00:39;9.60;;;1.30;;
76393;SDS011;65216;51.090;-115.352;2023-05-07T00:03:08;9.20;;;1.10;;
76393;SDS011;65216;51.090;-115.352;2023-05-07T00:05:35;9.20;;;1.30;;
76393;SDS011;65216;51.090;-115.352;2023-05-07T00:08:03;7.60;;;1.20;;
76393;SDS011;65216;51.090;-115.352;2023-05-07T00:10:33;9.90;;;1.00;;
76393;SDS011;65216;51.090;-115.352;2023-05-07T00:13:01;10.30;;;1.40;;
76393;SDS011;65216;51.090;-115.352;2023-05-07T00:15:28;10.80;;;1.40;;
76393;SDS011;65216;51.090;-115.352;2023-05-07T00:17:55;9.50;;;1.20;;
76393;SDS011;65216;51.090;-115.352;2023-05-07T00:20:25;12.40;;;1.40;;
76393;SDS011;65216;51.090;-115.352;2023-05-07T00:22:56;11.30;;;1.20;;
76393;SDS011;65216;51.090;-115.352;2023-05-07T00:25:23;7.20;;;1.30;;
76393;SDS011;65216;51.090;-115.352;2023-05-07T00:27:50;9.70;;;1.20;;
76393;SDS011;65216;51.090;-115.352;2023-05-07T00:30:20;7.80;;;1.20;;
76393;SDS011;65216;51.090;-115.352;2023-05-07T00:32:47;10.00;;;1.50;;
76393;SDS011;65216;51.090;-115.352;2023-05-07T00:35:17;5.30;;;1.00;;
76393;SDS011;65216;51.090;-115.352;2023-05-07T00:37:44;5.90;;;1.10;;
76393;SDS011;65216;51.090;-115.352;2023-05-07T00:40:12;11.90;;;1.50;;
76393;SDS011;65216;51.090;-115.352;2023-05-07T00:42:39;10.50;;;1.30;;
76393;SDS011;65216;51.090;-115.352;2023-05-07T00:45:07;10.90;;;1.40;;
76393;SDS011;65216;51.090;-115.352;2023-05-07T00:47:34;12.30;;;1.50;;
76393;SDS011;65216;51.090;-115.352;2023-05-07T00:50:02;10.70;;;1.10;;
76393;SDS011;65216;51.090;-115.352;2023-05-07T00:52:33;7.00;;;1.10;;
76393;SDS011;65216;51.090;-115.352;2023-05-07T00:55:05;9.40;;;1.20;;
76393;SDS011;65216;51.090;-115.352;2023-05-07T00:57:36;7.10;;;1.10;;
76393;SDS011;65216;51.090;-115.352;2023-05-07T01:00:07;9.60;;;1.30;;
76393;SDS011;65216;51.090;-115.352;2023-05-07T01:02:36;11.80;;;1.40;;
76393;SDS011;65216;51.090;-115.352;2023-05-07T01:05:05;13.20;;;1.40;;
76393;SDS011;65216;51.090;-115.352;2023-05-07T01:07:40;9.20;;;1.20;;
76393;SDS011;65216;51.090;-115.352;2023-05-07T01:10:12;10.70;;;1.50;;
76393;SDS011;65216;51.090;-115.352;2023-05-07T01:12:45;12.20;;;1.30;;
76393;SDS011;65216;51.090;-115.352;2023-05-07T01:15:39;10.80;;;1.30;;
76393;SDS011;65216;51.090;-115.352;2023-05-07T01:18:34;10.40;;;1.50;;
76393;SDS011;65216;51.090;-115.352;2023-05-07T01:21:16;8.90;;;1.70;;
76393;SDS011;65216;51.090;-115.352;2023-05-07T01:23:44;10.70;;;1.40;;
76393;SDS011;65216;51.090;-115.352;2023-05-07T01:26:38;8.40;;;1.10;;
76393;SDS011;65216;51.090;-115.352;2023-05-07T01:29:12;12.70;;;1.40;;
76393;SDS011;65216;51.090;-115.352;2023-05-07T01:31:40;14.20;;;1.30;;
76393;SDS011;65216;51.090;-115.352;2023-05-07T01:34:25;8.10;;;1.50;;
76393;SDS011;65216;51.090;-115.352;2023-05-07T01:36:55;11.40;;;1.70;;
76393;SDS011;65216;51.090;-115.352;2023-05-07T01:39:28;11.70;;;1.60;;
76393;SDS011;65216;51.090;-115.352;2023-05-07T01:41:59;13.70;;;1.80;;
76393;SDS011;65216;51.090;-115.352;2023-05-07T01:44:27;11.10;;;1.40;;
76393;SDS011;65216;51.090;-115.352;2023-05-07T01:46:55;8.30;;;1.40;;
76393;SDS011;65216;51.090;-115.352;2023-05-07T01:49:23;10.00;;;1.30;;
76393;SDS011;65216;51.090;-115.352;2023-05-07T01:51:51;7.90;;;1.40;;
76393;SDS011;65216;51.090;-115.352;2023-05-07T01:54:18;9.20;;;1.30;;
76393;SDS011;65216;51.090;-115.352;2023-05-07T01:56:46;13.40;;;1.60;;
76393;SDS011;65216;51.090;-115.352;2023-05-07T01:59:14;12.10;;;1.40;;
76393;SDS011;65216;51.090;-115.352;2023-05-07T02:01:41;7.50;;;1.10;;
76393;SDS011;65216;51.090;-115.352;2023-05-07T02:04:09;8.70;;;1.00;;
76393;SDS011;65216;51.090;-115.352;2023-05-07T02:06:39;9.20;;;1.40;;
76393;SDS011;65216;51.090;-115.352;2023-05-07T02:09:05;7.80;;;1.40;;
76393;SDS011;65216;51.090;-115.352;2023-05-07T02:11:34;11.10;;;1.30;;
76393;SDS011;65216;51.090;-115.352;2023-05-07T02:14:02;15.10;;;1.90;;
76393;SDS011;65216;51.090;-115.352;2023-05-07T02:16:29;12.80;;;1.30;;
76393;SDS011;65216;51.090;-115.352;2023-05-07T02:18:56;11.40;;;1.40;;
76393;SDS011;65216;51.090;-115.352;2023-05-07T02:21:24;11.40;;;1.40;;
76393;SDS011;65216;51.090;-115.352;2023-05-07T02:23:52;10.70;;;1.20;;
76393;SDS011;65216;51.090;-115.352;2023-05-07T02:26:19;6.70;;;1.30;;
76393;SDS011;65216;51.090;-115.352;2023-05-07T02:28:47;8.30;;;1.40;;
76393;SDS011;65216;51.090;-115.352;2023-05-07T02:31:15;6.00;;;1.20;;
76393;SDS011;65216;51.090;-115.352;2023-05-07T02:33:41;11.10;;;1.40;;
76393;SDS011;65216;51.090;-115.352;2023-05-07T02:36:12;11.60;;;1.40;;
76393;SDS011;65216;51.090;-115.352;2023-05-07T02:38:42;10.30;;;1.30;;
76393;SDS011;65216;51.090;-115.352;2023-05-07T02:41:11;17.20;;;1.90;;
76393;SDS011;65216;51.090;-115.352;2023-05-07T02:43:41;15.10;;;1.80;;
76393;SDS011;65216;51.090;-115.352;2023-05-07T02:46:09;13.60;;;1.60;;
76393;SDS011;65216;51.090;-115.352;2023-05-07T02:48:36;9.90;;;1.30;;
76393;SDS011;65216;51.090;-115.352;2023-05-07T02:51:04;10.50;;;1.50;;
76393;SDS011;65216;51.090;-115.352;2023-05-07T02:53:31;8.00;;;1.90;;
76393;SDS011;65216;51.090;-115.352;2023-05-07T02:56:00;12.20;;;1.50;;
76393;SDS011;65216;51.090;-115.352;2023-05-07T02:58:28;9.70;;;1.60;;
76393;SDS011;65216;51.090;-115.352;2023-05-07T03:00:55;10.30;;;1.40;;
76393;SDS011;65216;51.090;-115.352;2023-05-07T03:03:22;16.20;;;1.70;;
76393;SDS011;65216;51.090;-115.352;2023-05-07T03:05:49;9.50;;;1.40;;
76393;SDS011;65216;51.090;-115.352;2023-05-07T03:08:16;8.10;;;1.30;;
76393;SDS011;65216;51.090;-115.352;2023-05-07T03:10:43;6.70;;;1.30;;
76393;SDS011;65216;51.090;-115.352;2023-05-07T03:13:13;6.80;;;1.10;;
76393;SDS011;65216;51.090;-115.352;2023-05-07T03:15:40;9.10;;;1.30;;
76393;SDS011;65216;51.090;-115.352;2023-05-07T03:18:08;7.90;;;1.00;;
76393;SDS011;65216;51.090;-115.352;2023-05-07T03:20:37;3.70;;;1.10;;
76393;SDS011;65216;51.090;-115.352;2023-05-07T03:23:05;6.20;;;1.10;;
76393;SDS011;65216;51.090;-115.352;2023-05-07T03:25:32;7.10;;;1.30;;
76393;SDS011;65216;51.090;-115.352;2023-05-07T03:27:59;3.60;;;1.00;;
76393;SDS011;65216;51.090;-115.352;2023-05-07T03:30:26;5.60;;;1.10;;
76393;SDS011;65216;51.090;-115.352;2023-05-07T03:32:56;5.30;;;1.10;;
76393;SDS011;65216;51.090;-115.352;2023-05-07T03:35:23;4.50;;;1.00;;
76393;SDS011;65216;51.090;-115.352;2023-05-07T03:37:50;4.00;;;1.00;;
76393;SDS011;65216;51.090;-115.352;2023-05-07T03:40:19;5.80;;;0.90;;
76393;SDS011;65216;51.090;-115.352;2023-05-07T03:42:47;3.00;;;0.80;;
76393;SDS011;65216;51.090;-115.352;2023-05-07T03:45:14;2.50;;;0.90;;
76393;SDS011;65216;51.090;-115.352;2023-05-07T03:47:44;2.60;;;0.80;;
76393;SDS011;65216;51.090;-115.352;2023-05-07T03:50:11;2.70;;;0.80;;
76393;SDS011;65216;51.090;-115.352;2023-05-07T03:52:38;3.90;;;0.90;;
76393;SDS011;65216;51.090;-115.352;2023-05-07T03:55:06;4.70;;;0.90;;
76393;SDS011;65216;51.090;-115.352;2023-05-07T03:57:34;2.20;;;0.70;;
76393;SDS011;65216;51.090;-115.352;2023-05-07T04:00:01;2.70;;;0.80;;
76393;SDS011;65216;51.090;-115.352;2023-05-07T04:02:29;2.10;;;0.80;;
76393;SDS011;65216;51.090;-115.352;2023-05-07T04:04:56;2.80;;;1.00;;
76393;SDS011;65216;51.090;-115.352;2023-05-07T04:07:23;5.60;;;0.90;;
76393;SDS011;65216;51.090;-115.352;2023-05-07T04:09:50;4.20;;;0.90;;
76393;SDS011;65216;51.090;-115.352;2023-05-07T04:12:18;4.30;;;1.00;;
76393;SDS011;65216;51.090;-115.352;2023-05-07T04:14:45;3.60;;;0.90;;
76393;SDS011;65216;51.090;-115.352;2023-05-07T04:17:12;4.40;;;1.00;;
76393;SDS011;65216;51.090;-115.352;2023-05-07T04:19:40;4.40;;;1.00;;
76393;SDS011;65216;51.090;-115.352;2023-05-07T04:22:11;3.90;;;0.80;;
76393;SDS011;65216;51.090;-115.352;2023-05-07T04:24:38;3.80;;;0.80;;
76393;SDS011;65216;51.090;-115.352;2023-05-07T04:27:05;3.50;;;0.80;;
76393;SDS011;65216;51.090;-115.352;2023-05-07T04:29:33;1.70;;;0.70;;
76393;SDS011;65216;51.090;-115.352;2023-05-07T04:32:00;2.90;;;0.80;;
76393;SDS011;65216;51.090;-115.352;2023-05-07T04:34:27;2.70;;;0.60;;
76393;SDS011;65216;51.090;-115.352;2023-05-07T04:36:58;2.90;;;0.90;;
76393;SDS011;65216;51.090;-115.352;2023-05-07T04:39:26;1.40;;;0.70;;
76393;SDS011;65216;51.090;-115.352;2023-05-07T04:41:53;3.40;;;0.90;;
76393;SDS011;65216;51.090;-115.352;2023-05-07T04:44:24;2.20;;;0.70;;
76393;SDS011;65216;51.090;-115.352;2023-05-07T04:46:51;2.10;;;0.80;;
76393;SDS011;65216;51.090;-115.352;2023-05-07T04:49:18;1.20;;;0.60;;
76393;SDS011;65216;51.090;-115.352;2023-05-07T04:51:46;2.80;;;0.70;;
76393;SDS011;65216;51.090;-115.352;2023-05-07T04:54:16;2.80;;;0.70;;
76393;SDS011;65216;51.090;-115.352;2023-05-07T04:56:43;2.40;;;0.60;;
76393;SDS011;65216;51.090;-115.352;2023-05-07T04:59:13;1.60;;;0.70;;
76393;SDS011;65216;51.090;-115.352;2023-05-07T05:01:40;3.90;;;0.80;;
76393;SDS011;65216;51.090;-115.352;2023-05-07T05:04:07;2.30;;;0.70;;
76393;SDS011;65216;51.090;-115.352;2023-05-07T05:06:36;1.70;;;0.70;;
76393;SDS011;65216;51.090;-115.352;2023-05-07T05:09:03;1.90;;;0.70;;
76393;SDS011;65216;51.090;-115.352;2023-05-07T05:11:33;1.40;;;0.60;;
76393;SDS011;65216;51.090;-115.352;2023-05-07T05:14:03;2.00;;;0.70;;
76393;SDS011;65216;51.090;-115.352;2023-05-07T05:16:30;3.30;;;0.70;;
76393;SDS011;65216;51.090;-115.352;2023-05-07T05:19:01;2.00;;;0.60;;
76393;SDS011;65216;51.090;-115.352;2023-05-07T05:21:28;4.30;;;0.90;;
76393;SDS011;65216;51.090;-115.352;2023-05-07T05:23:55;3.50;;;0.70;;
76393;SDS011;65216;51.090;-115.352;2023-05-07T05:26:22;5.40;;;1.10;;
76393;SDS011;65216;51.090;-115.352;2023-05-07T05:28:52;2.50;;;0.80;;
76393;SDS011;65216;51.090;-115.352;2023-05-07T05:31:22;3.60;;;0.80;;
76393;SDS011;65216;51.090;-115.352;2023-05-07T05:33:49;3.30;;;1.00;;
76393;SDS011;65216;51.090;-115.352;2023-05-07T05:36:16;3.20;;;0.80;;
76393;SDS011;65216;51.090;-115.352;2023-05-07T05:38:44;3.20;;;0.70;;
76393;SDS011;65216;51.090;-115.352;2023-05-07T05:41:11;2.50;;;0.80;;
76393;SDS011;65216;51.090;-115.352;2023-05-07T05:43:38;2.60;;;0.90;;
76393;SDS011;65216;51.090;-115.352;2023-05-07T05:46:05;1.80;;;0.90;;
76393;SDS011;65216;51.090;-115.352;2023-05-07T05:48:34;2.30;;;0.70;;
76393;SDS011;65216;51.090;-115.352;2023-05-07T05:51:01;1.70;;;0.70;;
76393;SDS011;65216;51.090;-115.352;2023-05-07T05:53:28;5.80;;;1.00;;
76393;SDS011;65216;51.090;-115.352;2023-05-07T05:55:55;3.00;;;1.10;;
76393;SDS011;65216;51.090;-115.352;2023-05-07T05:58:23;2.40;;;0.90;;
76393;SDS011;65216;51.090;-115.352;2023-05-07T06:00:50;3.40;;;0.70;;
76393;SDS011;65216;51.090;-115.352;2023-05-07T06:03:20;2.00;;;0.80;;
76393;SDS011;65216;51.090;-115.352;2023-05-07T06:05:50;3.30;;;0.80;;
76393;SDS011;65216;51.090;-115.352;2023-05-07T06:08:17;3.00;;;0.70;;
76393;SDS011;65216;51.090;-115.352;2023-05-07T06:10:44;2.50;;;0.70;;
76393;SDS011;65216;51.090;-115.352;2023-05-07T06:13:11;1.40;;;0.70;;
76393;SDS011;65216;51.090;-115.352;2023-05-07T06:15:38;3.30;;;0.70;;
76393;SDS011;65216;51.090;-115.352;2023-05-07T06:18:05;3.00;;;1.00;;
76393;SDS011;65216;51.090;-115.352;2023-05-07T06:20:32;1.80;;;0.70;;
76393;SDS011;65216;51.090;-115.352;2023-05-07T06:23:00;1.50;;;0.80;;
76393;SDS011;65216;51.090;-115.352;2023-05-07T06:25:27;2.40;;;0.80;;
76393;SDS011;65216;51.090;-115.352;2023-05-07T06:27:54;1.40;;;0.70;;
76393;SDS011;65216;51.090;-115.352;2023-05-07T06:30:22;2.00;;;0.60;;
76393;SDS011;65216;51.090;-115.352;2023-05-07T06:32:49;2.20;;;0.80;;
76393;SDS011;65216;51.090;-115.352;2023-05-07T06:35:19;1.80;;;0.90;;
76393;SDS011;65216;51.090;-115.352;2023-05-07T06:37:48;2.10;;;0.70;;
76393;SDS011;65216;51.090;-115.352;2023-05-07T06:40:15;1.70;;;0.80;;
76393;SDS011;65216;51.090;-115.352;2023-05-07T06:42:45;1.30;;;0.70;;
76393;SDS011;65216;51.090;-115.352;2023-05-07T06:45:12;1.50;;;0.70;;
76393;SDS011;65216;51.090;-115.352;2023-05-07T06:47:43;1.80;;;0.80;;
76393;SDS011;65216;51.090;-115.352;2023-05-07T06:50:13;2.30;;;1.10;;
76393;SDS011;65216;51.090;-115.352;2023-05-07T06:52:43;1.60;;;0.70;;
76393;SDS011;65216;51.090;-115.352;2023-05-07T06:55:10;1.80;;;0.80;;
76393;SDS011;65216;51.090;-115.352;2023-05-07T06:57:37;1.20;;;0.70;;
76393;SDS011;65216;51.090;-115.352;2023-05-07T07:00:05;3.20;;;0.80;;
76393;SDS011;65216;51.090;-115.352;2023-05-07T07:02:34;2.30;;;0.90;;
76393;SDS011;65216;51.090;-115.352;2023-05-07T07:05:04;2.50;;;1.00;;
76393;SDS011;65216;51.090;-115.352;2023-05-07T07:07:32;2.20;;;0.90;;
76393;SDS011;65216;51.090;-115.352;2023-05-07T07:09:59;1.90;;;1.00;;
76393;SDS011;65216;51.090;-115.352;2023-05-07T07:12:30;2.70;;;0.90;;
76393;SDS011;65216;51.090;-115.352;2023-05-07T07:14:57;1.90;;;1.00;;
76393;SDS011;65216;51.090;-115.352;2023-05-07T07:17:25;4.10;;;1.10;;
76393;SDS011;65216;51.090;-115.352;2023-05-07T07:19:54;1.90;;;1.00;;
76393;SDS011;65216;51.090;-115.352;2023-05-07T07:22:21;1.80;;;0.90;;
76393;SDS011;65216;51.090;-115.352;2023-05-07T07:24:49;1.80;;;0.90;;
76393;SDS011;65216;51.090;-115.352;2023-05-07T07:27:19;2.20;;;0.90;;
76393;SDS011;65216;51.090;-115.352;2023-05-07T07:29:46;2.00;;;0.90;;
76393;SDS011;65216;51.090;-115.352;2023-05-07T07:32:16;1.50;;;0.70;;
76393;SDS011;65216;51.090;-115.352;2023-05-07T07:34:43;2.50;;;1.00;;
76393;SDS011;65216;51.090;-115.352;2023-05-07T07:37:10;1.80;;;0.80;;
76393;SDS011;65216;51.090;-115.352;2023-05-07T07:39:40;2.20;;;0.90;;
76393;SDS011;65216;51.090;-115.352;2023-05-07T07:42:10;1.70;;;0.70;;
76393;SDS011;65216;51.090;-115.352;2023-05-07T07:44:37;2.40;;;1.10;;
76393;SDS011;65216;51.090;-115.352;2023-05-07T07:47:05;2.10;;;1.00;;
76393;SDS011;65216;51.090;-115.352;2023-05-07T07:49:32;2.20;;;0.90;;
76393;SDS011;65216;51.090;-115.352;2023-05-07T07:52:02;2.10;;;1.00;;
76393;SDS011;65216;51.090;-115.352;2023-05-07T07:54:30;2.20;;;1.00;;
76393;SDS011;65216;51.090;-115.352;2023-05-07T07:56:58;1.80;;;0.80;;
76393;SDS011;65216;51.090;-115.352;2023-05-07T07:59:28;1.30;;;0.80;;
76393;SDS011;65216;51.090;-115.352;2023-05-07T08:01:55;3.30;;;1.10;;
76393;SDS011;65216;51.090;-115.352;2023-05-07T08:04:24;3.00;;;1.20;;
76393;SDS011;65216;51.090;-115.352;2023-05-07T08:06:51;2.40;;;0.90;;
76393;SDS011;65216;51.090;-115.352;2023-05-07T08:09:20;2.00;;;1.00;;
76393;SDS011;65216;51.090;-115.352;2023-05-07T08:11:47;2.30;;;0.80;;
76393;SDS011;65216;51.090;-115.352;2023-05-07T08:14:15;2.30;;;0.90;;
76393;SDS011;65216;51.090;-115.352;2023-05-07T08:16:42;2.20;;;0.90;;
76393;SDS011;65216;51.090;-115.352;2023-05-07T08:19:09;2.80;;;1.00;;
76393;SDS011;65216;51.090;-115.352;2023-05-07T08:21:38;3.10;;;0.90;;
76393;SDS011;65216;51.090;-115.352;2023-05-07T08:24:06;2.60;;;1.00;;
76393;SDS011;65216;51.090;-115.352;2023-05-07T08:26:33;2.30;;;0.70;;
76393;SDS011;65216;51.090;-115.352;2023-05-07T08:29:02;2.90;;;0.70;;
76393;SDS011;65216;51.090;-115.352;2023-05-07T08:31:29;1.70;;;0.90;;
76393;SDS011;65216;51.090;-115.352;2023-05-07T08:33:57;2.50;;;0.80;;
76393;SDS011;65216;51.090;-115.352;2023-05-07T08:36:24;2.00;;;0.90;;
76393;SDS011;65216;51.090;-115.352;2023-05-07T08:38:52;1.80;;;0.80;;
76393;SDS011;65216;51.090;-115.352;2023-05-07T08:41:20;1.30;;;0.70;;
76393;SDS011;65216;51.090;-115.352;2023-05-07T08:43:49;2.10;;;0.80;;
76393;SDS011;65216;51.090;-115.352;2023-05-07T08:48:51;1.70;;;0.90;;
76393;SDS011;65216;51.090;-115.352;2023-05-07T08:51:20;2.40;;;0.70;;
76393;SDS011;65216;51.090;-115.352;2023-05-07T08:53:48;3.00;;;0.90;;
76393;SDS011;65216;51.090;-115.352;2023-05-07T08:56:16;1.80;;;0.70;;
76393;SDS011;65216;51.090;-115.352;2023-05-07T08:58:47;2.00;;;0.80;;
76393;SDS011;65216;51.090;-115.352;2023-05-07T09:01:15;1.20;;;0.70;;
76393;SDS011;65216;51.090;-115.352;2023-05-07T09:03:46;1.90;;;0.80;;
76393;SDS011;65216;51.090;-115.352;2023-05-07T09:06:14;2.10;;;0.90;;
76393;SDS011;65216;51.090;-115.352;2023-05-07T09:08:50;1.60;;;0.90;;
76393;SDS011;65216;51.090;-115.352;2023-05-07T09:11:25;1.60;;;0.90;;
76393;SDS011;65216;51.090;-115.352;2023-05-07T09:13:56;2.20;;;0.90;;
76393;SDS011;65216;51.090;-115.352;2023-05-07T09:16:25;1.60;;;0.80;;
76393;SDS011;65216;51.090;-115.352;2023-05-07T09:18:59;1.90;;;0.90;;
76393;SDS011;65216;51.090;-115.352;2023-05-07T09:21:27;2.20;;;0.90;;
76393;SDS011;65216;51.090;-115.352;2023-05-07T09:23:57;1.60;;;0.90;;
76393;SDS011;65216;51.090;-115.352;2023-05-07T09:26:28;2.10;;;1.00;;
76393;SDS011;65216;51.090;-115.352;2023-05-07T09:28:57;2.20;;;0.80;;
76393;SDS011;65216;51.090;-115.352;2023-05-07T09:31:25;2.70;;;1.00;;
76393;SDS011;65216;51.090;-115.352;2023-05-07T09:33:53;1.90;;;0.80;;
76393;SDS011;65216;51.090;-115.352;2023-05-07T09:36:24;1.70;;;0.80;;
76393;SDS011;65216;51.090;-115.352;2023-05-07T09:38:53;2.30;;;0.90;;
76393;SDS011;65216;51.090;-115.352;2023-05-07T09:41:20;2.80;;;1.00;;
76393;SDS011;65216;51.090;-115.352;2023-05-07T09:43:54;2.00;;;0.80;;
76393;SDS011;65216;51.090;-115.352;2023-05-07T09:46:30;2.60;;;1.10;;
76393;SDS011;65216;51.090;-115.352;2023-05-07T09:48:58;1.50;;;0.80;;
76393;SDS011;65216;51.090;-115.352;2023-05-07T09:51:34;1.40;;;0.70;;
76393;SDS011;65216;51.090;-115.352;2023-05-07T09:54:16;0.80;;;0.60;;
76393;SDS011;65216;51.090;-115.352;2023-05-07T09:56:48;1.80;;;0.80;;
76393;SDS011;65216;51.090;-115.352;2023-05-07T09:59:16;2.20;;;0.80;;
76393;SDS011;65216;51.090;-115.352;2023-05-07T10:01:44;2.00;;;0.90;;
76393;SDS011;65216;51.090;-115.352;2023-05-07T10:04:12;1.30;;;0.70;;
76393;SDS011;65216;51.090;-115.352;2023-05-07T10:06:41;1.60;;;0.80;;
76393;SDS011;65216;51.090;-115.352;2023-05-07T10:09:11;1.50;;;0.80;;
76393;SDS011;65216;51.090;-115.352;2023-05-07T10:11:40;2.10;;;0.80;;
76393;SDS011;65216;51.090;-115.352;2023-05-07T10:14:08;1.80;;;0.80;;
76393;SDS011;65216;51.090;-115.352;2023-05-07T10:16:36;1.90;;;0.80;;
76393;SDS011;65216;51.090;-115.352;2023-05-07T10:19:04;1.60;;;0.70;;
76393;SDS011;65216;51.090;-115.352;2023-05-07T10:21:36;1.30;;;0.80;;
76393;SDS011;65216;51.090;-115.352;2023-05-07T10:26:47;1.40;;;0.80;;
76393;SDS011;65216;51.090;-115.352;2023-05-07T10:29:34;2.10;;;0.80;;
76393;SDS011;65216;51.090;-115.352;2023-05-07T10:35:09;1.50;;;0.80;;
76393;SDS011;65216;51.090;-115.352;2023-05-07T10:37:58;2.20;;;0.80;;
76393;SDS011;65216;51.090;-115.352;2023-05-07T10:40:26;1.30;;;0.60;;
76393;SDS011;65216;51.090;-115.352;2023-05-07T10:43:03;1.30;;;0.70;;
76393;SDS011;65216;51.090;-115.352;2023-05-07T10:45:32;2.00;;;0.70;;
76393;SDS011;65216;51.090;-115.352;2023-05-07T10:48:06;1.20;;;0.70;;
76393;SDS011;65216;51.090;-115.352;2023-05-07T10:50:35;1.90;;;0.70;;
76393;SDS011;65216;51.090;-115.352;2023-05-07T10:55:48;1.30;;;0.60;;
76393;SDS011;65216;51.090;-115.352;2023-05-07T11:00:49;1.60;;;0.80;;
76393;SDS011;65216;51.090;-115.352;2023-05-07T11:03:17;1.60;;;0.70;;
76393;SDS011;65216;51.090;-115.352;2023-05-07T11:05:44;1.90;;;0.80;;
76393;SDS011;65216;51.090;-115.352;2023-05-07T11:08:12;1.90;;;0.80;;
76393;SDS011;65216;51.090;-115.352;2023-05-07T11:10:51;1.20;;;0.70;;
76393;SDS011;65216;51.090;-115.352;2023-05-07T11:16:21;1.90;;;0.90;;
76393;SDS011;65216;51.090;-115.352;2023-05-07T11:18:56;1.50;;;0.80;;
76393;SDS011;65216;51.090;-115.352;2023-05-07T11:21:39;2.90;;;0.70;;
76393;SDS011;65216;51.090;-115.352;2023-05-07T11:24:09;2.40;;;0.80;;
76393;SDS011;65216;51.090;-115.352;2023-05-07T11:26:51;2.00;;;0.90;;
76393;SDS011;65216;51.090;-115.352;2023-05-07T11:29:20;2.20;;;1.10;;
76393;SDS011;65216;51.090;-115.352;2023-05-07T11:31:54;2.30;;;1.00;;
76393;SDS011;65216;51.090;-115.352;2023-05-07T11:34:23;2.10;;;1.00;;
76393;SDS011;65216;51.090;-115.352;2023-05-07T11:36:54;1.90;;;0.90;;
76393;SDS011;65216;51.090;-115.352;2023-05-07T11:39:31;4.00;;;1.00;;
76393;SDS011;65216;51.090;-115.352;2023-05-07T11:42:02;2.10;;;1.00;;
76393;SDS011;65216;51.090;-115.352;2023-05-07T11:44:42;2.20;;;0.90;;
76393;SDS011;65216;51.090;-115.352;2023-05-07T11:47:16;2.00;;;0.90;;
76393;SDS011;65216;51.090;-115.352;2023-05-07T11:49:56;2.00;;;1.00;;
76393;SDS011;65216;51.090;-115.352;2023-05-07T11:52:28;3.40;;;1.20;;
76393;SDS011;65216;51.090;-115.352;2023-05-07T11:54:57;1.80;;;1.00;;
76393;SDS011;65216;51.090;-115.352;2023-05-07T11:57:26;3.30;;;1.10;;
76393;SDS011;65216;51.090;-115.352;2023-05-07T11:59:58;2.10;;;1.10;;
76393;SDS011;65216;51.090;-115.352;2023-05-07T12:02:28;2.90;;;1.10;;
76393;SDS011;65216;51.090;-115.352;2023-05-07T12:04:55;2.40;;;1.30;;
76393;SDS011;65216;51.090;-115.352;2023-05-07T12:07:25;2.70;;;1.10;;
76393;SDS011;65216;51.090;-115.352;2023-05-07T12:09:53;3.20;;;1.10;;
76393;SDS011;65216;51.090;-115.352;2023-05-07T12:12:21;2.00;;;1.00;;
76393;SDS011;65216;51.090;-115.352;2023-05-07T12:14:52;2.20;;;1.00;;
76393;SDS011;65216;51.090;-115.352;2023-05-07T12:17:20;2.60;;;1.20;;
76393;SDS011;65216;51.090;-115.352;2023-05-07T12:19:47;3.00;;;1.30;;
76393;SDS011;65216;51.090;-115.352;2023-05-07T12:22:15;2.80;;;1.40;;
76393;SDS011;65216;51.090;-115.352;2023-05-07T12:24:50;2.30;;;1.20;;
76393;SDS011;65216;51.090;-115.352;2023-05-07T12:27:25;3.00;;;1.50;;
76393;SDS011;65216;51.090;-115.352;2023-05-07T12:29:52;2.60;;;1.30;;
76393;SDS011;65216;51.090;-115.352;2023-05-07T12:32:21;3.10;;;1.40;;
76393;SDS011;65216;51.090;-115.352;2023-05-07T12:34:54;2.60;;;1.20;;
76393;SDS011;65216;51.090;-115.352;2023-05-07T12:37:25;2.70;;;1.30;;
76393;SDS011;65216;51.090;-115.352;2023-05-07T12:42:35;3.20;;;1.60;;
76393;SDS011;65216;51.090;-115.352;2023-05-07T12:47:38;3.60;;;1.50;;
76393;SDS011;65216;51.090;-115.352;2023-05-07T12:50:06;2.40;;;1.30;;
76393;SDS011;65216;51.090;-115.352;2023-05-07T12:52:34;2.80;;;1.20;;
76393;SDS011;65216;51.090;-115.352;2023-05-07T12:55:05;2.60;;;1.40;;
76393;SDS011;65216;51.090;-115.352;2023-05-07T12:57:45;3.90;;;1.50;;
76393;SDS011;65216;51.090;-115.352;2023-05-07T13:00:15;2.80;;;1.50;;
76393;SDS011;65216;51.090;-115.352;2023-05-07T13:02:43;3.20;;;1.30;;
76393;SDS011;65216;51.090;-115.352;2023-05-07T13:05:11;2.90;;;1.40;;
76393;SDS011;65216;51.090;-115.352;2023-05-07T13:07:39;3.20;;;1.30;;
76393;SDS011;65216;51.090;-115.352;2023-05-07T13:10:07;2.20;;;1.00;;
76393;SDS011;65216;51.090;-115.352;2023-05-07T13:12:34;2.50;;;1.30;;
76393;SDS011;65216;51.090;-115.352;2023-05-07T13:15:01;2.00;;;1.10;;
76393;SDS011;65216;51.090;-115.352;2023-05-07T13:17:29;2.90;;;1.10;;
76393;SDS011;65216;51.090;-115.352;2023-05-07T13:19:57;2.70;;;1.30;;
76393;SDS011;65216;51.090;-115.352;2023-05-07T13:22:24;2.70;;;1.20;;
76393;SDS011;65216;51.090;-115.352;2023-05-07T13:24:51;2.30;;;1.20;;
76393;SDS011;65216;51.090;-115.352;2023-05-07T13:27:20;2.00;;;1.20;;
76393;SDS011;65216;51.090;-115.352;2023-05-07T13:29:47;2.60;;;1.20;;
76393;SDS011;65216;51.090;-115.352;2023-05-07T13:32:16;2.70;;;1.10;;
76393;SDS011;65216;51.090;-115.352;2023-05-07T13:34:43;2.60;;;1.10;;
76393;SDS011;65216;51.090;-115.352;2023-05-07T13:37:10;3.10;;;1.10;;
76393;SDS011;65216;51.090;-115.352;2023-05-07T13:39:37;2.10;;;1.10;;
76393;SDS011;65216;51.090;-115.352;2023-05-07T13:42:05;2.20;;;1.10;;
76393;SDS011;65216;51.090;-115.352;2023-05-07T13:44:32;2.10;;;1.10;;
76393;SDS011;65216;51.090;-115.352;2023-05-07T13:46:59;2.10;;;1.20;;
76393;SDS011;65216;51.090;-115.352;2023-05-07T13:49:29;2.70;;;1.10;;
76393;SDS011;65216;51.090;-115.352;2023-05-07T13:51:56;2.40;;;1.10;;
76393;SDS011;65216;51.090;-115.352;2023-05-07T13:54:23;2.00;;;1.00;;
76393;SDS011;65216;51.090;-115.352;2023-05-07T13:56:51;2.90;;;1.40;;
76393;SDS011;65216;51.090;-115.352;2023-05-07T13:59:18;2.30;;;1.20;;
76393;SDS011;65216;51.090;-115.352;2023-05-07T14:01:45;2.50;;;1.00;;
76393;SDS011;65216;51.090;-115.352;2023-05-07T14:04:13;2.20;;;1.20;;
76393;SDS011;65216;51.090;-115.352;2023-05-07T14:06:40;2.60;;;1.20;;
76393;SDS011;65216;51.090;-115.352;2023-05-07T14:09:07;2.90;;;1.20;;
76393;SDS011;65216;51.090;-115.352;2023-05-07T14:11:38;3.00;;;1.30;;
76393;SDS011;65216;51.090;-115.352;2023-05-07T14:14:05;3.20;;;1.30;;
76393;SDS011;65216;51.090;-115.352;2023-05-07T14:16:32;5.10;;;1.50;;
76393;SDS011;65216;51.090;-115.352;2023-05-07T14:18:59;3.80;;;1.30;;
76393;SDS011;65216;51.090;-115.352;2023-05-07T14:21:26;3.60;;;1.50;;
76393;SDS011;65216;51.090;-115.352;2023-05-07T14:23:59;2.90;;;1.30;;
76393;SDS011;65216;51.090;-115.352;2023-05-07T14:26:26;3.20;;;1.40;;
76393;SDS011;65216;51.090;-115.352;2023-05-07T14:28:54;2.90;;;1.40;;
76393;SDS011;65216;51.090;-115.352;2023-05-07T14:31:25;2.80;;;1.40;;
76393;SDS011;65216;51.090;-115.352;2023-05-07T14:33:52;2.90;;;1.40;;
76393;SDS011;65216;51.090;-115.352;2023-05-07T14:36:19;2.00;;;1.20;;
76393;SDS011;65216;51.090;-115.352;2023-05-07T14:38:48;7.20;;;1.60;;
76393;SDS011;65216;51.090;-115.352;2023-05-07T14:41:16;4.90;;;1.70;;